createdAt,value
2023-05-09T00:00:31.856Z,28
2023-05-09T00:01:00.392Z,31
2023-05-09T00:01:32.043Z,33
2023-05-09T00:02:02.502Z,36
2023-05-09T00:02:34.293Z,38
2023-05-09T00:03:05.410Z,41
2023-05-09T00:03:36.126Z,42
2023-05-09T00:04:06.435Z,39
2023-05-09T00:04:38.150Z,37
2023-05-09T00:05:08.836Z,37
2023-05-09T00:05:40.096Z,36
2023-05-09T00:06:10.718Z,38
2023-05-09T00:06:42.066Z,39
2023-05-09T00:07:12.361Z,40
2023-05-09T00:07:44.059Z,42
2023-05-09T00:08:15.387Z,44
2023-05-09T00:08:46.812Z,46
2023-05-09T00:09:16.586Z,48
2023-05-09T00:09:48.123Z,50
2023-05-09T00:10:18.997Z,52
2023-05-09T00:10:50.155Z,54
2023-05-09T00:11:20.354Z,54
2023-05-09T00:11:52.155Z,54
2023-05-09T00:12:22.386Z,54
2023-05-09T00:12:54.197Z,54
2023-05-09T00:13:25.490Z,54
2023-05-09T00:13:56.084Z,54
2023-05-09T00:14:26.399Z,54
2023-05-09T00:14:58.565Z,54
2023-05-09T00:15:29.792Z,53
2023-05-09T00:16:00.184Z,53
2023-05-09T00:16:30.500Z,53
2023-05-09T00:17:02.174Z,53
2023-05-09T00:17:32.365Z,53
2023-05-09T00:18:04.176Z,53
2023-05-09T00:18:35.363Z,53
2023-05-09T00:19:06.521Z,53
2023-05-09T00:19:36.846Z,53
2023-05-09T00:20:08.471Z,53
2023-05-09T00:20:38.422Z,53
2023-05-09T00:21:10.517Z,53
2023-05-09T00:21:40.424Z,53
2023-05-09T00:22:12.637Z,53
2023-05-09T00:22:42.382Z,53
2023-05-09T00:23:14.159Z,53
2023-05-09T00:23:45.422Z,53
2023-05-09T00:24:16.092Z,53
2023-05-09T00:24:46.357Z,53
2023-05-09T00:25:18.890Z,54
2023-05-09T00:25:48.407Z,54
2023-05-09T00:26:20.266Z,54
2023-05-09T00:26:50.375Z,54
2023-05-09T00:27:22.041Z,54
2023-05-09T00:27:52.354Z,54
2023-05-09T00:28:24.053Z,54
2023-05-09T00:28:55.778Z,54
2023-05-09T00:29:26.359Z,54
2023-05-09T00:29:56.393Z,54
2023-05-09T00:30:28.893Z,54
2023-05-09T00:30:58.422Z,54
2023-05-09T00:31:30.073Z,54
2023-05-09T00:32:00.407Z,54
2023-05-09T00:32:32.086Z,54
2023-05-09T00:33:03.123Z,54
2023-05-09T00:33:34.038Z,53
2023-05-09T00:34:05.390Z,53
2023-05-09T00:34:36.039Z,53
2023-05-09T00:35:06.912Z,53
2023-05-09T00:35:38.504Z,53
2023-05-09T00:36:08.812Z,53
2023-05-09T00:36:40.085Z,53
2023-05-09T00:37:10.490Z,53
2023-05-09T00:37:42.069Z,53
2023-05-09T00:38:12.383Z,53
2023-05-09T00:38:44.049Z,53
2023-05-09T00:39:15.361Z,53
2023-05-09T00:39:46.407Z,53
2023-05-09T00:40:17.675Z,53
2023-05-09T00:40:47.392Z,53
2023-05-09T00:41:19.063Z,53
2023-05-09T00:41:49.419Z,53
2023-05-09T00:42:21.115Z,53
2023-05-09T00:42:51.344Z,53
2023-05-09T00:43:23.069Z,53
2023-05-09T00:43:53.396Z,53
2023-05-09T00:44:26.057Z,53
2023-05-09T00:44:55.369Z,53
2023-05-09T00:45:27.891Z,53
2023-05-09T00:45:57.429Z,53
2023-05-09T00:46:29.292Z,53
2023-05-09T00:46:59.372Z,53
2023-05-09T00:47:31.060Z,53
2023-05-09T00:48:01.365Z,53
2023-05-09T00:48:33.088Z,53
2023-05-09T00:49:03.348Z,53
2023-05-09T00:49:36.067Z,53
2023-05-09T00:50:06.285Z,53
2023-05-09T00:50:37.155Z,53
2023-05-09T00:51:07.414Z,53
2023-05-09T00:51:39.070Z,53
2023-05-09T00:52:09.424Z,53
2023-05-09T00:52:41.143Z,53
2023-05-09T00:53:11.904Z,53
2023-05-09T00:53:43.204Z,53
2023-05-09T00:54:13.394Z,53
2023-05-09T00:54:46.032Z,53
2023-05-09T00:55:16.152Z,53
2023-05-09T00:55:47.041Z,53
2023-05-09T00:56:17.370Z,53
2023-05-09T00:56:49.082Z,53
2023-05-09T00:57:19.375Z,53
2023-05-09T00:57:51.065Z,53
2023-05-09T00:58:21.339Z,53
2023-05-09T00:58:53.060Z,53
2023-05-09T00:59:23.320Z,53
2023-05-09T00:59:56.063Z,53
2023-05-09T01:00:27.179Z,53
2023-05-09T01:00:58.810Z,53
2023-05-09T01:01:27.408Z,53
2023-05-09T01:01:59.045Z,53
2023-05-09T01:02:29.426Z,53
2023-05-09T01:03:01.283Z,53
2023-05-09T01:03:31.650Z,53
2023-05-09T01:04:03.138Z,53
2023-05-09T01:04:33.330Z,53
2023-05-09T01:05:07.112Z,53
2023-05-09T01:05:35.326Z,53
2023-05-09T01:06:07.239Z,53
2023-05-09T01:06:37.794Z,53
2023-05-09T01:07:09.177Z,53
2023-05-09T01:07:39.344Z,53
2023-05-09T01:08:11.205Z,53
2023-05-09T01:08:41.348Z,53
2023-05-09T01:09:13.173Z,53
2023-05-09T01:09:43.458Z,53
2023-05-09T01:10:16.565Z,53
2023-05-09T01:10:45.816Z,53
2023-05-09T01:11:17.065Z,53
2023-05-09T01:11:47.374Z,53
2023-05-09T01:12:19.146Z,53
2023-05-09T01:12:49.369Z,53
2023-05-09T01:13:21.555Z,53
2023-05-09T01:13:51.800Z,53
2023-05-09T01:14:23.068Z,53
2023-05-09T01:14:53.341Z,53
2023-05-09T01:15:27.023Z,53
2023-05-09T01:15:55.583Z,53
2023-05-09T01:16:27.136Z,53
2023-05-09T01:16:57.439Z,53
2023-05-09T01:17:29.314Z,53
2023-05-09T01:17:59.389Z,53
2023-05-09T01:18:31.216Z,53
2023-05-09T01:19:01.381Z,53
2023-05-09T01:19:33.189Z,52
2023-05-09T01:20:04.382Z,50
2023-05-09T01:20:37.863Z,49
2023-05-09T01:21:05.705Z,48
2023-05-09T01:21:37.082Z,46
2023-05-09T01:22:07.494Z,48
2023-05-09T01:22:39.028Z,51
2023-05-09T01:23:09.374Z,53
2023-05-09T01:23:41.096Z,56
2023-05-09T01:24:11.410Z,58
2023-05-09T01:24:43.248Z,61
2023-05-09T01:25:14.067Z,64
2023-05-09T01:25:46.573Z,65
2023-05-09T01:26:15.385Z,70
2023-05-09T01:26:46.858Z,75
2023-05-09T01:27:18.030Z,79
2023-05-09T01:27:48.421Z,84
2023-05-09T01:28:20.085Z,89
2023-05-09T01:28:50.324Z,90
2023-05-09T01:29:22.118Z,90
2023-05-09T01:29:52.347Z,90
2023-05-09T01:30:24.908Z,90
2023-05-09T01:30:55.524Z,90
2023-05-09T01:31:26.524Z,90
2023-05-09T01:31:56.367Z,90
2023-05-09T01:32:28.076Z,90
2023-05-09T01:32:58.450Z,90
2023-05-09T01:33:30.480Z,90
2023-05-09T01:34:00.405Z,90
2023-05-09T01:34:32.086Z,90
2023-05-09T01:35:03.305Z,90
2023-05-09T01:35:34.040Z,90
2023-05-09T01:36:05.890Z,90
2023-05-09T01:36:36.129Z,90
2023-05-09T01:37:06.433Z,90
2023-05-09T01:37:38.498Z,90
2023-05-09T01:38:08.434Z,90
2023-05-09T01:38:40.059Z,90
2023-05-09T01:39:10.414Z,90
2023-05-09T01:39:41.348Z,90
2023-05-09T01:40:14.263Z,90
2023-05-09T01:40:45.880Z,90
2023-05-09T01:41:16.103Z,90
2023-05-09T01:41:45.704Z,90
2023-05-09T01:42:17.148Z,90
2023-05-09T01:42:47.331Z,90
2023-05-09T01:43:19.077Z,90
2023-05-09T01:43:49.398Z,90
2023-05-09T01:44:21.097Z,90
2023-05-09T01:44:51.355Z,90
2023-05-09T01:45:24.021Z,90
2023-05-09T01:45:53.396Z,90
2023-05-09T01:46:26.224Z,90
2023-05-09T01:46:56.115Z,90
2023-05-09T01:47:27.138Z,90
2023-05-09T01:47:57.341Z,90
2023-05-09T01:48:29.059Z,90
2023-05-09T01:48:59.378Z,90
2023-05-09T01:49:31.097Z,90
2023-05-09T01:50:02.223Z,90
2023-05-09T01:50:33.052Z,90
2023-05-09T01:51:03.415Z,90
2023-05-09T01:51:36.145Z,90
2023-05-09T01:52:05.794Z,90
2023-05-09T01:52:37.153Z,90
2023-05-09T01:53:07.408Z,90
2023-05-09T01:53:39.479Z,90
2023-05-09T01:54:09.333Z,90
2023-05-09T01:54:41.106Z,90
2023-05-09T01:55:11.923Z,90
2023-05-09T01:55:43.226Z,90
2023-05-09T01:56:13.499Z,90
2023-05-09T01:56:46.125Z,90
2023-05-09T01:57:15.361Z,90
2023-05-09T01:57:47.043Z,90
2023-05-09T01:58:17.334Z,90
2023-05-09T01:58:49.056Z,90
2023-05-09T01:59:19.452Z,90
2023-05-09T01:59:51.104Z,90
2023-05-09T02:00:26.073Z,90
2023-05-09T02:00:54.675Z,90
2023-05-09T02:01:23.820Z,90
2023-05-09T02:01:56.121Z,90
2023-05-09T02:02:25.719Z,90
2023-05-09T02:02:57.145Z,90
2023-05-09T02:03:27.410Z,90
2023-05-09T02:03:59.052Z,90
2023-05-09T02:04:29.605Z,90
2023-05-09T02:05:02.742Z,90
2023-05-09T02:05:31.635Z,90
2023-05-09T02:06:03.465Z,90
2023-05-09T02:06:33.376Z,90
2023-05-09T02:07:06.103Z,90
2023-05-09T02:07:35.364Z,90
2023-05-09T02:08:07.268Z,90
2023-05-09T02:08:37.369Z,90
2023-05-09T02:09:09.102Z,90
2023-05-09T02:09:39.360Z,90
2023-05-09T02:10:11.635Z,90
2023-05-09T02:10:41.320Z,90
2023-05-09T02:11:13.119Z,90
2023-05-09T02:11:43.634Z,90
2023-05-09T02:12:16.185Z,90
2023-05-09T02:12:45.776Z,90
2023-05-09T02:13:17.097Z,90
2023-05-09T02:13:47.357Z,90
2023-05-09T02:14:19.097Z,90
2023-05-09T02:14:49.376Z,88
2023-05-09T02:15:21.965Z,84
2023-05-09T02:15:51.371Z,80
2023-05-09T02:16:23.075Z,76
2023-05-09T02:16:53.358Z,73
2023-05-09T02:17:26.038Z,70
2023-05-09T02:17:55.585Z,70
2023-05-09T02:18:27.491Z,69
2023-05-09T02:18:57.313Z,68
2023-05-09T02:19:29.015Z,68
2023-05-09T02:19:59.369Z,67
2023-05-09T02:20:37.700Z,66
2023-05-09T02:21:01.375Z,66
2023-05-09T02:21:33.240Z,65
2023-05-09T02:22:03.351Z,64
2023-05-09T02:22:40.153Z,65
2023-05-09T02:23:05.694Z,66
2023-05-09T02:23:36.392Z,68
2023-05-09T02:24:08.057Z,69
2023-05-09T02:24:38.503Z,71
2023-05-09T02:25:10.610Z,74
2023-05-09T02:25:40.409Z,77
2023-05-09T02:26:12.029Z,78
2023-05-09T02:26:42.444Z,80
2023-05-09T02:27:14.565Z,80
2023-05-09T02:27:45.369Z,80
2023-05-09T02:28:16.191Z,80
2023-05-09T02:28:46.362Z,80
2023-05-09T02:29:18.064Z,80
2023-05-09T02:29:48.395Z,80
2023-05-09T02:30:21.718Z,80
2023-05-09T02:30:50.363Z,81
2023-05-09T02:31:22.300Z,81
2023-05-09T02:31:52.399Z,81
2023-05-09T02:32:24.038Z,81
2023-05-09T02:32:55.679Z,79
2023-05-09T02:33:26.360Z,77
2023-05-09T02:33:56.517Z,76
2023-05-09T02:34:28.005Z,74
2023-05-09T02:34:58.304Z,72
2023-05-09T02:35:30.564Z,70
2023-05-09T02:36:00.353Z,67
2023-05-09T02:36:31.996Z,65
2023-05-09T02:37:02.506Z,64
2023-05-09T02:37:34.048Z,64
2023-05-09T02:38:05.372Z,64
2023-05-09T02:38:37.008Z,64
2023-05-09T02:39:06.449Z,64
2023-05-09T02:39:37.488Z,64
2023-05-09T02:40:09.570Z,64
2023-05-09T02:40:41.043Z,64
2023-05-09T02:41:11.093Z,64
2023-05-09T02:41:41.343Z,64
2023-05-09T02:42:13.101Z,64
2023-05-09T02:42:43.552Z,64
2023-05-09T02:43:16.739Z,64
2023-05-09T02:43:45.829Z,64
2023-05-09T02:44:17.114Z,64
2023-05-09T02:44:47.590Z,64
2023-05-09T02:45:20.161Z,64
2023-05-09T02:45:49.375Z,64
2023-05-09T02:46:21.082Z,64
2023-05-09T02:46:51.365Z,64
2023-05-09T02:47:23.515Z,64
2023-05-09T02:47:53.417Z,64
2023-05-09T02:48:26.116Z,64
2023-05-09T02:48:55.528Z,64
2023-05-09T02:49:32.320Z,64
2023-05-09T02:49:57.407Z,64
2023-05-09T02:50:29.627Z,64
2023-05-09T02:50:59.318Z,64
2023-05-09T02:51:31.040Z,64
2023-05-09T02:52:01.796Z,64
2023-05-09T02:52:33.117Z,64
2023-05-09T02:53:03.421Z,64
2023-05-09T02:53:37.280Z,64
2023-05-09T02:54:06.224Z,64
2023-05-09T02:54:36.431Z,64
2023-05-09T02:55:08.548Z,64
2023-05-09T02:55:38.365Z,64
2023-05-09T02:56:10.035Z,64
2023-05-09T02:56:40.418Z,64
2023-05-09T02:57:12.038Z,64
2023-05-09T02:57:42.331Z,64
2023-05-09T02:58:15.125Z,64
2023-05-09T02:58:45.322Z,64
2023-05-09T02:59:16.136Z,64
2023-05-09T02:59:46.306Z,64
2023-05-09T03:00:19.465Z,64
2023-05-09T03:00:48.802Z,64
2023-05-09T03:01:20.126Z,64
2023-05-09T03:01:50.542Z,64
2023-05-09T03:02:22.126Z,64
2023-05-09T03:02:52.643Z,64
2023-05-09T03:03:24.286Z,64
2023-05-09T03:03:55.517Z,64
2023-05-09T03:04:27.539Z,64
2023-05-09T03:04:56.779Z,64
2023-05-09T03:05:28.764Z,64
2023-05-09T03:05:58.373Z,64
2023-05-09T03:06:30.184Z,64
2023-05-09T03:07:00.808Z,64
2023-05-09T03:07:32.753Z,64
2023-05-09T03:08:02.625Z,64
2023-05-09T03:08:35.063Z,64
2023-05-09T03:09:05.406Z,64
2023-05-09T03:09:36.207Z,64
2023-05-09T03:10:07.311Z,64
2023-05-09T03:10:38.303Z,64
2023-05-09T03:11:08.483Z,64
2023-05-09T03:11:40.079Z,64
2023-05-09T03:12:10.403Z,64
2023-05-09T03:12:42.088Z,64
2023-05-09T03:13:12.473Z,64
2023-05-09T03:13:44.068Z,64
2023-05-09T03:14:15.952Z,64
2023-05-09T03:14:46.480Z,64
2023-05-09T03:15:17.366Z,64
2023-05-09T03:15:48.064Z,64
2023-05-09T03:16:18.542Z,64
2023-05-09T03:16:50.050Z,64
2023-05-09T03:17:20.436Z,64
2023-05-09T03:17:52.085Z,64
2023-05-09T03:18:23.205Z,64
2023-05-09T03:18:54.189Z,64
2023-05-09T03:19:25.469Z,64
2023-05-09T03:19:56.088Z,64
2023-05-09T03:20:29.497Z,64
2023-05-09T03:20:58.556Z,64
2023-05-09T03:21:28.423Z,64
2023-05-09T03:22:00.169Z,64
2023-05-09T03:22:30.368Z,64
2023-05-09T03:23:02.178Z,64
2023-05-09T03:23:32.410Z,64
2023-05-09T03:24:04.187Z,64
2023-05-09T03:24:35.815Z,64
2023-05-09T03:25:07.169Z,64
2023-05-09T03:25:36.339Z,64
2023-05-09T03:26:08.054Z,64
2023-05-09T03:26:38.437Z,64
2023-05-09T03:27:10.058Z,64
2023-05-09T03:27:40.459Z,64
2023-05-09T03:28:12.100Z,64
2023-05-09T03:28:42.503Z,64
2023-05-09T03:29:14.109Z,64
2023-05-09T03:29:45.398Z,64
2023-05-09T03:30:18.377Z,64
2023-05-09T03:30:46.500Z,64
2023-05-09T03:31:18.316Z,64
2023-05-09T03:31:48.867Z,64
2023-05-09T03:32:20.377Z,64
2023-05-09T03:32:50.643Z,64
2023-05-09T03:33:22.258Z,64
2023-05-09T03:33:52.498Z,64
2023-05-09T03:34:24.750Z,64
2023-05-09T03:34:55.487Z,64
2023-05-09T03:35:27.034Z,64
2023-05-09T03:35:56.537Z,64
2023-05-09T03:36:28.151Z,64
2023-05-09T03:36:58.554Z,64
2023-05-09T03:37:30.198Z,64
2023-05-09T03:38:00.710Z,64
2023-05-09T03:38:32.290Z,64
2023-05-09T03:39:02.900Z,64
2023-05-09T03:39:33.500Z,64
2023-05-09T03:40:06.205Z,64
2023-05-09T03:40:37.654Z,64
2023-05-09T03:41:06.531Z,64
2023-05-09T03:41:38.190Z,64
2023-05-09T03:42:08.518Z,64
2023-05-09T03:42:40.269Z,64
2023-05-09T03:43:10.564Z,64
2023-05-09T03:43:42.197Z,64
2023-05-09T03:44:12.415Z,64
2023-05-09T03:44:44.220Z,64
2023-05-09T03:45:16.839Z,64
2023-05-09T03:45:46.656Z,64
2023-05-09T03:46:16.578Z,64
2023-05-09T03:46:48.221Z,64
2023-05-09T03:47:18.516Z,64
2023-05-09T03:47:50.632Z,64
2023-05-09T03:48:20.517Z,64
2023-05-09T03:48:52.158Z,64
2023-05-09T03:49:22.478Z,64
2023-05-09T03:49:54.191Z,64
2023-05-09T03:50:26.347Z,64
2023-05-09T03:50:56.132Z,64
2023-05-09T03:51:26.421Z,64
2023-05-09T03:51:58.191Z,64
2023-05-09T03:52:28.473Z,64
2023-05-09T03:53:00.219Z,64
2023-05-09T03:53:30.452Z,64
2023-05-09T03:54:02.216Z,64
2023-05-09T03:54:32.480Z,64
2023-05-09T03:55:04.978Z,64
2023-05-09T03:55:35.697Z,64
2023-05-09T03:56:06.479Z,64
2023-05-09T03:56:36.469Z,64
2023-05-09T03:57:08.227Z,64
2023-05-09T03:57:38.558Z,64
2023-05-09T03:58:10.167Z,64
2023-05-09T03:58:41.059Z,64
2023-05-09T03:59:12.226Z,64
2023-05-09T03:59:42.426Z,64
2023-05-09T04:00:15.448Z,64
2023-05-09T04:00:48.816Z,64
2023-05-09T04:01:16.687Z,64
2023-05-09T04:01:46.558Z,64
2023-05-09T04:02:18.254Z,64
2023-05-09T04:02:48.500Z,64
2023-05-09T04:03:20.385Z,64
2023-05-09T04:03:50.511Z,64
2023-05-09T04:04:22.249Z,64
2023-05-09T04:04:52.451Z,64
2023-05-09T04:05:24.782Z,64
2023-05-09T04:05:55.459Z,64
2023-05-09T04:06:26.503Z,64
2023-05-09T04:06:56.558Z,64
2023-05-09T04:07:28.241Z,64
2023-05-09T04:07:58.531Z,64
2023-05-09T04:08:33.175Z,64
2023-05-09T04:09:00.492Z,64
2023-05-09T04:09:31.471Z,64
2023-05-09T04:10:03.794Z,64
2023-05-09T04:10:33.569Z,64
2023-05-09T04:11:06.195Z,64
2023-05-09T04:11:35.515Z,64
2023-05-09T04:12:07.272Z,64
2023-05-09T04:12:37.495Z,64
2023-05-09T04:13:09.441Z,64
2023-05-09T04:13:39.456Z,64
2023-05-09T04:14:11.175Z,64
2023-05-09T04:14:41.452Z,64
2023-05-09T04:15:15.078Z,64
2023-05-09T04:15:43.601Z,64
2023-05-09T04:16:16.193Z,64
2023-05-09T04:16:45.856Z,64
2023-05-09T04:17:17.329Z,64
2023-05-09T04:17:47.639Z,64
2023-05-09T04:18:19.246Z,64
2023-05-09T04:18:50.007Z,64
2023-05-09T04:19:21.125Z,64
2023-05-09T04:19:51.394Z,64
2023-05-09T04:20:23.713Z,64
2023-05-09T04:20:53.628Z,64
2023-05-09T04:21:26.256Z,64
2023-05-09T04:21:55.508Z,64
2023-05-09T04:22:27.225Z,64
2023-05-09T04:22:57.477Z,64
2023-05-09T04:23:29.171Z,64
2023-05-09T04:23:59.445Z,64
2023-05-09T04:24:31.187Z,64
2023-05-09T04:25:02.315Z,64
2023-05-09T04:25:33.155Z,64
2023-05-09T04:26:03.491Z,64
2023-05-09T04:26:36.253Z,64
2023-05-09T04:27:05.759Z,64
2023-05-09T04:27:37.474Z,64
2023-05-09T04:28:07.563Z,64
2023-05-09T04:28:39.203Z,66
2023-05-09T04:29:09.476Z,69
2023-05-09T04:29:41.171Z,71
2023-05-09T04:30:12.438Z,74
2023-05-09T04:30:43.391Z,76
2023-05-09T04:31:13.694Z,79
2023-05-09T04:31:46.367Z,82
2023-05-09T04:32:15.950Z,84
2023-05-09T04:32:47.228Z,87
2023-05-09T04:33:17.420Z,90
2023-05-09T04:33:49.223Z,90
2023-05-09T04:34:19.508Z,90
2023-05-09T04:34:51.668Z,90
2023-05-09T04:35:22.308Z,90
2023-05-09T04:35:53.168Z,90
2023-05-09T04:36:23.469Z,90
2023-05-09T04:36:56.184Z,90
2023-05-09T04:37:25.863Z,90
2023-05-09T04:37:57.196Z,90
2023-05-09T04:38:27.462Z,90
2023-05-09T04:38:59.180Z,90
2023-05-09T04:39:29.472Z,90
2023-05-09T04:40:00.703Z,90
2023-05-09T04:40:38.679Z,90
2023-05-09T04:41:02.560Z,90
2023-05-09T04:41:34.877Z,90
2023-05-09T04:42:05.480Z,90
2023-05-09T04:42:36.121Z,90
2023-05-09T04:43:06.530Z,90
2023-05-09T04:43:38.154Z,90
2023-05-09T04:44:08.459Z,90
2023-05-09T04:44:40.184Z,90
2023-05-09T04:45:11.453Z,90
2023-05-09T04:45:42.366Z,90
2023-05-09T04:46:12.466Z,90
2023-05-09T04:46:44.308Z,90
2023-05-09T04:47:15.479Z,90
2023-05-09T04:47:47.079Z,90
2023-05-09T04:48:16.566Z,90
2023-05-09T04:48:48.201Z,90
2023-05-09T04:49:18.468Z,90
2023-05-09T04:49:50.220Z,90
2023-05-09T04:50:20.985Z,90
2023-05-09T04:50:52.201Z,90
2023-05-09T04:51:22.583Z,90
2023-05-09T04:51:54.224Z,90
2023-05-09T04:52:25.472Z,90
2023-05-09T04:52:56.177Z,90
2023-05-09T04:53:26.549Z,90
2023-05-09T04:53:58.162Z,90
2023-05-09T04:54:28.509Z,90
2023-05-09T04:55:00.985Z,90
2023-05-09T04:55:31.202Z,90
2023-05-09T04:56:02.202Z,90
2023-05-09T04:56:32.458Z,90
2023-05-09T04:57:16.638Z,90
2023-05-09T04:57:35.480Z,90
2023-05-09T04:58:06.523Z,90
2023-05-09T04:58:36.587Z,90
2023-05-09T04:59:08.454Z,90
2023-05-09T04:59:38.450Z,90
2023-05-09T05:00:11.486Z,90
2023-05-09T05:00:47.055Z,90
2023-05-09T05:01:12.465Z,90
2023-05-09T05:01:42.483Z,90
2023-05-09T05:02:14.242Z,90
2023-05-09T05:02:46.123Z,90
2023-05-09T05:03:16.329Z,90
2023-05-09T05:03:46.525Z,90
2023-05-09T05:04:18.209Z,90
2023-05-09T05:04:48.546Z,90
2023-05-09T05:05:24.673Z,90
2023-05-09T05:05:51.125Z,90
2023-05-09T05:06:22.208Z,90
2023-05-09T05:06:52.526Z,90
2023-05-09T05:07:24.223Z,90
2023-05-09T05:07:55.495Z,90
2023-05-09T05:08:27.184Z,90
2023-05-09T05:08:56.471Z,90
2023-05-09T05:09:28.153Z,90
2023-05-09T05:09:58.510Z,90
2023-05-09T05:10:30.781Z,90
2023-05-09T05:11:00.565Z,90
2023-05-09T05:11:32.198Z,90
2023-05-09T05:12:04.266Z,90
2023-05-09T05:12:34.220Z,90
2023-05-09T05:13:05.778Z,90
2023-05-09T05:13:40.342Z,90
2023-05-09T05:14:06.504Z,90
2023-05-09T05:14:37.555Z,90
2023-05-09T05:15:11.229Z,90
2023-05-09T05:15:39.542Z,90
2023-05-09T05:16:11.374Z,90
2023-05-09T05:16:41.518Z,90
2023-05-09T05:17:13.280Z,90
2023-05-09T05:17:43.543Z,90
2023-05-09T05:18:16.172Z,90
2023-05-09T05:18:45.810Z,90
2023-05-09T05:19:17.261Z,90
2023-05-09T05:19:47.478Z,90
2023-05-09T05:20:19.745Z,90
2023-05-09T05:20:49.471Z,90
2023-05-09T05:21:21.179Z,90
2023-05-09T05:21:51.465Z,90
2023-05-09T05:22:23.112Z,90
2023-05-09T05:22:53.487Z,90
2023-05-09T05:23:26.216Z,90
2023-05-09T05:23:55.466Z,90
2023-05-09T05:24:27.199Z,90
2023-05-09T05:24:58.143Z,90
2023-05-09T05:25:29.667Z,90
2023-05-09T05:25:59.912Z,90
2023-05-09T05:26:31.443Z,90
2023-05-09T05:27:02.041Z,90
2023-05-09T05:27:33.184Z,90
2023-05-09T05:28:03.498Z,90
2023-05-09T05:28:37.096Z,90
2023-05-09T05:29:05.802Z,90
2023-05-09T05:29:36.610Z,90
2023-05-09T05:30:09.508Z,90
2023-05-09T05:30:38.705Z,90
2023-05-09T05:31:10.403Z,90
2023-05-09T05:31:40.712Z,90
2023-05-09T05:32:12.400Z,90
2023-05-09T05:32:43.389Z,90
2023-05-09T05:33:14.352Z,90
2023-05-09T05:33:45.655Z,90
2023-05-09T05:34:16.389Z,90
2023-05-09T05:34:46.650Z,90
2023-05-09T05:35:19.560Z,90
2023-05-09T05:35:48.732Z,90
2023-05-09T05:36:20.311Z,90
2023-05-09T05:36:50.647Z,90
2023-05-09T05:37:22.305Z,90
2023-05-09T05:37:52.552Z,90
2023-05-09T05:38:24.393Z,90
2023-05-09T05:38:55.632Z,90
2023-05-09T05:39:26.651Z,90
2023-05-09T05:39:56.595Z,90
2023-05-09T05:40:40.524Z,90
2023-05-09T05:40:58.591Z,90
2023-05-09T05:41:30.330Z,90
2023-05-09T05:42:00.830Z,90
2023-05-09T05:42:32.330Z,90
2023-05-09T05:43:02.792Z,90
2023-05-09T05:43:34.327Z,90
2023-05-09T05:44:05.617Z,90
2023-05-09T05:44:36.345Z,90
2023-05-09T05:45:07.629Z,90
2023-05-09T05:45:38.423Z,90
2023-05-09T05:46:09.453Z,90
2023-05-09T05:46:40.283Z,90
2023-05-09T05:47:10.614Z,90
2023-05-09T05:47:42.455Z,90
2023-05-09T05:48:12.652Z,90
2023-05-09T05:48:44.938Z,90
2023-05-09T05:49:15.624Z,90
2023-05-09T05:49:46.767Z,90
2023-05-09T05:50:17.273Z,90
2023-05-09T05:50:48.362Z,90
2023-05-09T05:51:18.664Z,90
2023-05-09T05:51:50.409Z,90
2023-05-09T05:52:20.629Z,90
2023-05-09T05:52:52.675Z,90
2023-05-09T05:53:22.650Z,90
2023-05-09T05:53:54.446Z,90
2023-05-09T05:54:25.605Z,90
2023-05-09T05:54:56.281Z,90
2023-05-09T05:55:27.839Z,90
2023-05-09T05:55:58.380Z,90
2023-05-09T05:56:28.649Z,90
2023-05-09T05:57:00.850Z,90
2023-05-09T05:57:30.659Z,90
2023-05-09T05:58:02.388Z,90
2023-05-09T05:58:32.918Z,90
2023-05-09T05:59:04.375Z,90
2023-05-09T05:59:35.822Z,90
2023-05-09T06:00:08.600Z,90
2023-05-09T06:00:40.546Z,90
2023-05-09T06:01:08.430Z,90
2023-05-09T06:01:38.761Z,90
2023-05-09T06:02:11.134Z,90
2023-05-09T06:02:40.909Z,90
2023-05-09T06:03:12.412Z,90
2023-05-09T06:03:42.814Z,90
2023-05-09T06:04:14.441Z,90
2023-05-09T06:04:45.564Z,90
2023-05-09T06:05:17.336Z,180
2023-05-09T06:05:46.685Z,180
2023-05-09T06:06:18.836Z,180
2023-05-09T06:06:48.687Z,180
2023-05-09T06:07:20.322Z,180
2023-05-09T06:07:50.861Z,180
2023-05-09T06:08:22.314Z,180
2023-05-09T06:08:52.611Z,180
2023-05-09T06:09:24.397Z,180
2023-05-09T06:09:55.628Z,180
2023-05-09T06:10:27.726Z,180
2023-05-09T06:10:56.917Z,180
2023-05-09T06:11:28.408Z,180
2023-05-09T06:11:58.705Z,180
2023-05-09T06:12:30.366Z,180
2023-05-09T06:13:01.562Z,180
2023-05-09T06:13:32.444Z,180
2023-05-09T06:14:02.840Z,180
2023-05-09T06:14:34.377Z,180
2023-05-09T06:15:06.704Z,180
2023-05-09T06:15:38.839Z,180
2023-05-09T06:16:18.594Z,180
2023-05-09T06:16:37.724Z,180
2023-05-09T06:17:09.342Z,180
2023-05-09T06:17:39.614Z,180
2023-05-09T06:18:11.378Z,180
2023-05-09T06:18:41.596Z,180
2023-05-09T06:19:13.563Z,180
2023-05-09T06:19:44.690Z,180
2023-05-09T06:20:16.933Z,180
2023-05-09T06:20:50.108Z,180
2023-05-09T06:21:17.372Z,180
2023-05-09T06:21:47.700Z,180
2023-05-09T06:22:20.141Z,180
2023-05-09T06:22:49.625Z,180
2023-05-09T06:23:21.285Z,180
2023-05-09T06:24:07.739Z,180
2023-05-09T06:24:34.596Z,180
2023-05-09T06:24:53.613Z,180
2023-05-09T06:25:26.924Z,180
2023-05-09T06:25:55.579Z,180
2023-05-09T06:26:27.943Z,180
2023-05-09T06:26:57.710Z,180
2023-05-09T06:27:29.276Z,180
2023-05-09T06:27:59.574Z,180
2023-05-09T06:28:31.373Z,180
2023-05-09T06:29:01.835Z,180
2023-05-09T06:29:33.295Z,180
2023-05-09T06:30:14.152Z,90
2023-05-09T06:30:40.357Z,90
2023-05-09T06:31:05.964Z,90
2023-05-09T06:31:36.577Z,90
2023-05-09T06:32:08.400Z,90
2023-05-09T06:32:38.735Z,90
2023-05-09T06:33:10.841Z,90
2023-05-09T06:33:40.660Z,90
2023-05-09T06:34:12.315Z,90
2023-05-09T06:34:42.714Z,90
2023-05-09T06:35:15.026Z,90
2023-05-09T06:35:46.276Z,90
2023-05-09T06:36:16.443Z,90
2023-05-09T06:36:46.750Z,90
2023-05-09T06:37:18.308Z,90
2023-05-09T06:37:49.251Z,90
2023-05-09T06:38:20.537Z,90
2023-05-09T06:38:50.614Z,90
2023-05-09T06:39:21.756Z,90
2023-05-09T06:39:53.308Z,90
2023-05-09T06:40:24.953Z,90
2023-05-09T06:40:55.644Z,180
2023-05-09T06:41:26.608Z,180
2023-05-09T06:41:56.641Z,180
2023-05-09T06:42:29.097Z,180
2023-05-09T06:42:59.669Z,180
2023-05-09T06:43:30.345Z,180
2023-05-09T06:44:01.003Z,180
2023-05-09T06:44:32.317Z,180
2023-05-09T06:45:03.799Z,180
2023-05-09T06:45:34.417Z,180
2023-05-09T06:46:05.933Z,180
2023-05-09T06:46:36.956Z,180
2023-05-09T06:47:06.619Z,180
2023-05-09T06:47:38.384Z,180
2023-05-09T06:48:08.753Z,180
2023-05-09T06:48:40.392Z,180
2023-05-09T06:49:10.733Z,180
2023-05-09T06:49:42.278Z,180
2023-05-09T06:50:13.449Z,180
2023-05-09T06:50:44.473Z,180
2023-05-09T06:51:15.553Z,180
2023-05-09T06:51:46.841Z,180
2023-05-09T06:52:16.600Z,180
2023-05-09T06:52:48.291Z,180
2023-05-09T06:53:19.341Z,180
2023-05-09T06:53:50.311Z,180
2023-05-09T06:54:20.574Z,180
2023-05-09T06:54:52.320Z,180
2023-05-09T06:55:23.205Z,180
2023-05-09T06:55:54.989Z,180
2023-05-09T06:56:25.642Z,180
2023-05-09T06:56:56.545Z,180
2023-05-09T06:57:26.830Z,180
2023-05-09T06:57:58.422Z,180
2023-05-09T06:58:28.715Z,180
2023-05-09T06:59:00.861Z,180
2023-05-09T06:59:30.671Z,180
2023-05-09T07:00:04.320Z,180
2023-05-09T07:00:32.830Z,180
2023-05-09T07:01:04.413Z,271
2023-05-09T07:01:35.698Z,180
2023-05-09T07:02:06.629Z,180
2023-05-09T07:02:36.647Z,180
2023-05-09T07:03:08.560Z,180
2023-05-09T07:03:38.708Z,180
2023-05-09T07:04:10.372Z,180
2023-05-09T07:04:40.643Z,272
2023-05-09T07:05:13.054Z,275
2023-05-09T07:05:42.602Z,278
2023-05-09T07:06:14.472Z,276
2023-05-09T07:06:46.093Z,273
2023-05-09T07:07:16.559Z,270
2023-05-09T07:07:46.604Z,180
2023-05-09T07:08:18.325Z,180
2023-05-09T07:08:48.638Z,180
2023-05-09T07:09:20.487Z,180
2023-05-09T07:09:53.009Z,180
2023-05-09T07:10:22.984Z,180
2023-05-09T07:10:52.962Z,180
2023-05-09T07:11:24.325Z,180
2023-05-09T07:11:55.673Z,180
2023-05-09T07:12:26.855Z,180
2023-05-09T07:12:56.691Z,180
2023-05-09T07:13:28.913Z,180
2023-05-09T07:13:58.650Z,180
2023-05-09T07:14:30.309Z,180
2023-05-09T07:15:01.187Z,180
2023-05-09T07:15:41.949Z,90
2023-05-09T07:16:02.798Z,90
2023-05-09T07:16:37.243Z,90
2023-05-09T07:17:36.670Z,90
2023-05-09T07:18:06.671Z,90
2023-05-09T07:18:38.705Z,90
2023-05-09T07:19:08.600Z,90
2023-05-09T07:19:40.487Z,90
2023-05-09T07:20:11.901Z,90
2023-05-09T07:20:42.501Z,90